sensor_id;sensor_type;location;lat;lon;timestamp;P1;durP1;ratioP1;P2;durP2;ratioP2
70313;SDS011;57725;47.526;18.986;2023-05-29T00:00:57;3.50;;;2.40;;
70313;SDS011;57725;47.526;18.986;2023-05-29T00:03:23;4.30;;;3.33;;
70313;SDS011;57725;47.526;18.986;2023-05-29T00:05:48;4.28;;;3.15;;
70313;SDS011;57725;47.526;18.986;2023-05-29T00:08:14;4.13;;;3.00;;
70313;SDS011;57725;47.526;18.986;2023-05-29T00:10:41;5.05;;;3.35;;
70313;SDS011;57725;47.526;18.986;2023-05-29T00:13:12;3.85;;;3.00;;
70313;SDS011;57725;47.526;18.986;2023-05-29T00:15:39;3.92;;;2.85;;
70313;SDS011;57725;47.526;18.986;2023-05-29T00:18:07;4.93;;;2.90;;
70313;SDS011;57725;47.526;18.986;2023-05-29T00:20:32;5.05;;;3.40;;
70313;SDS011;57725;47.526;18.986;2023-05-29T00:23:01;5.55;;;3.40;;
70313;SDS011;57725;47.526;18.986;2023-05-29T00:25:33;4.03;;;2.95;;
70313;SDS011;57725;47.526;18.986;2023-05-29T00:27:58;5.50;;;3.42;;
70313;SDS011;57725;47.526;18.986;2023-05-29T00:30:26;4.45;;;3.00;;
70313;SDS011;57725;47.526;18.986;2023-05-29T00:32:52;4.65;;;3.00;;
70313;SDS011;57725;47.526;18.986;2023-05-29T00:35:17;4.18;;;3.30;;
70313;SDS011;57725;47.526;18.986;2023-05-29T00:37:43;4.38;;;2.97;;
70313;SDS011;57725;47.526;18.986;2023-05-29T00:40:11;3.90;;;2.67;;
70313;SDS011;57725;47.526;18.986;2023-05-29T00:42:37;4.00;;;3.13;;
70313;SDS011;57725;47.526;18.986;2023-05-29T00:45:02;3.63;;;3.13;;
70313;SDS011;57725;47.526;18.986;2023-05-29T00:47:31;4.30;;;2.60;;
70313;SDS011;57725;47.526;18.986;2023-05-29T00:49:59;3.40;;;2.60;;
70313;SDS011;57725;47.526;18.986;2023-05-29T00:52:25;3.30;;;2.53;;
70313;SDS011;57725;47.526;18.986;2023-05-29T00:54:54;3.58;;;2.80;;
70313;SDS011;57725;47.526;18.986;2023-05-29T00:57:22;3.90;;;2.78;;
70313;SDS011;57725;47.526;18.986;2023-05-29T00:59:48;4.38;;;2.85;;
70313;SDS011;57725;47.526;18.986;2023-05-29T01:02:16;3.55;;;2.53;;
70313;SDS011;57725;47.526;18.986;2023-05-29T01:04:44;3.95;;;3.03;;
70313;SDS011;57725;47.526;18.986;2023-05-29T01:07:10;3.95;;;2.78;;
70313;SDS011;57725;47.526;18.986;2023-05-29T01:09:38;6.38;;;2.92;;
70313;SDS011;57725;47.526;18.986;2023-05-29T01:17:50;4.07;;;2.83;;
70313;SDS011;57725;47.526;18.986;2023-05-29T01:20:45;4.15;;;2.60;;
70313;SDS011;57725;47.526;18.986;2023-05-29T01:25:58;3.85;;;3.00;;
70313;SDS011;57725;47.526;18.986;2023-05-29T01:28:40;3.25;;;2.35;;
70313;SDS011;57725;47.526;18.986;2023-05-29T01:31:07;3.78;;;2.45;;
70313;SDS011;57725;47.526;18.986;2023-05-29T01:33:38;5.03;;;2.97;;
70313;SDS011;57725;47.526;18.986;2023-05-29T01:36:10;3.92;;;2.70;;
70313;SDS011;57725;47.526;18.986;2023-05-29T01:38:36;5.13;;;2.92;;
70313;SDS011;57725;47.526;18.986;2023-05-29T01:41:02;4.75;;;3.15;;
70313;SDS011;57725;47.526;18.986;2023-05-29T01:43:30;3.85;;;2.67;;
70313;SDS011;57725;47.526;18.986;2023-05-29T01:45:59;4.65;;;3.03;;
70313;SDS011;57725;47.526;18.986;2023-05-29T01:48:27;3.90;;;2.70;;
70313;SDS011;57725;47.526;18.986;2023-05-29T01:50:55;5.57;;;2.55;;
70313;SDS011;57725;47.526;18.986;2023-05-29T01:53:28;3.38;;;2.53;;
70313;SDS011;57725;47.526;18.986;2023-05-29T01:55:56;3.92;;;3.08;;
70313;SDS011;57725;47.526;18.986;2023-05-29T01:58:21;3.80;;;2.42;;
70313;SDS011;57725;47.526;18.986;2023-05-29T02:00:49;3.88;;;2.80;;
70313;SDS011;57725;47.526;18.986;2023-05-29T02:03:16;3.70;;;2.80;;
70313;SDS011;57725;47.526;18.986;2023-05-29T02:05:42;4.47;;;3.05;;
70313;SDS011;57725;47.526;18.986;2023-05-29T02:08:14;3.60;;;2.45;;
70313;SDS011;57725;47.526;18.986;2023-05-29T02:10:44;3.38;;;2.72;;
70313;SDS011;57725;47.526;18.986;2023-05-29T02:13:12;5.45;;;3.17;;
70313;SDS011;57725;47.526;18.986;2023-05-29T02:15:37;4.30;;;2.70;;
70313;SDS011;57725;47.526;18.986;2023-05-29T02:18:03;3.88;;;3.00;;
70313;SDS011;57725;47.526;18.986;2023-05-29T02:20:28;3.53;;;2.88;;
70313;SDS011;57725;47.526;18.986;2023-05-29T02:22:54;3.65;;;2.75;;
70313;SDS011;57725;47.526;18.986;2023-05-29T02:25:24;4.60;;;3.13;;
70313;SDS011;57725;47.526;18.986;2023-05-29T02:27:54;4.10;;;2.93;;
70313;SDS011;57725;47.526;18.986;2023-05-29T02:30:19;4.55;;;3.15;;
70313;SDS011;57725;47.526;18.986;2023-05-29T02:32:50;4.20;;;2.97;;
70313;SDS011;57725;47.526;18.986;2023-05-29T02:35:18;5.43;;;3.08;;
70313;SDS011;57725;47.526;18.986;2023-05-29T02:37:48;4.20;;;3.10;;
70313;SDS011;57725;47.526;18.986;2023-05-29T02:40:17;4.97;;;3.38;;
70313;SDS011;57725;47.526;18.986;2023-05-29T02:42:46;3.85;;;3.15;;
70313;SDS011;57725;47.526;18.986;2023-05-29T02:45:12;4.35;;;2.60;;
70313;SDS011;57725;47.526;18.986;2023-05-29T02:47:40;4.25;;;3.00;;
70313;SDS011;57725;47.526;18.986;2023-05-29T02:50:08;4.15;;;3.30;;
70313;SDS011;57725;47.526;18.986;2023-05-29T02:52:36;6.25;;;2.85;;
70313;SDS011;57725;47.526;18.986;2023-05-29T02:55:05;4.03;;;3.00;;
70313;SDS011;57725;47.526;18.986;2023-05-29T02:57:33;3.58;;;2.97;;
70313;SDS011;57725;47.526;18.986;2023-05-29T02:59:58;3.83;;;2.85;;
70313;SDS011;57725;47.526;18.986;2023-05-29T03:02:26;6.70;;;3.30;;
70313;SDS011;57725;47.526;18.986;2023-05-29T03:04:52;3.25;;;2.67;;
70313;SDS011;57725;47.526;18.986;2023-05-29T03:07:18;3.17;;;2.60;;
70313;SDS011;57725;47.526;18.986;2023-05-29T03:09:46;4.63;;;3.53;;
70313;SDS011;57725;47.526;18.986;2023-05-29T03:12:15;4.70;;;3.25;;
70313;SDS011;57725;47.526;18.986;2023-05-29T03:14:41;4.28;;;3.00;;
70313;SDS011;57725;47.526;18.986;2023-05-29T03:17:12;4.72;;;3.50;;
70313;SDS011;57725;47.526;18.986;2023-05-29T03:19:40;4.57;;;2.88;;
70313;SDS011;57725;47.526;18.986;2023-05-29T03:22:08;4.20;;;3.05;;
70313;SDS011;57725;47.526;18.986;2023-05-29T03:24:36;4.68;;;3.25;;
70313;SDS011;57725;47.526;18.986;2023-05-29T03:27:01;4.30;;;2.90;;
70313;SDS011;57725;47.526;18.986;2023-05-29T03:29:28;4.47;;;3.05;;
70313;SDS011;57725;47.526;18.986;2023-05-29T03:31:54;6.00;;;3.53;;
70313;SDS011;57725;47.526;18.986;2023-05-29T03:34:22;3.88;;;3.25;;
70313;SDS011;57725;47.526;18.986;2023-05-29T03:36:52;5.90;;;3.20;;
70313;SDS011;57725;47.526;18.986;2023-05-29T03:39:18;4.38;;;3.33;;
70313;SDS011;57725;47.526;18.986;2023-05-29T03:41:46;4.25;;;2.97;;
70313;SDS011;57725;47.526;18.986;2023-05-29T03:44:16;4.63;;;3.22;;
70313;SDS011;57725;47.526;18.986;2023-05-29T03:46:44;5.57;;;4.10;;
70313;SDS011;57725;47.526;18.986;2023-05-29T03:49:09;4.43;;;3.28;;
70313;SDS011;57725;47.526;18.986;2023-05-29T03:51:35;4.28;;;2.97;;
70313;SDS011;57725;47.526;18.986;2023-05-29T03:54:03;5.93;;;3.53;;
70313;SDS011;57725;47.526;18.986;2023-05-29T03:56:28;5.00;;;3.05;;
70313;SDS011;57725;47.526;18.986;2023-05-29T03:58:55;4.18;;;3.00;;
70313;SDS011;57725;47.526;18.986;2023-05-29T04:01:20;3.22;;;2.92;;
70313;SDS011;57725;47.526;18.986;2023-05-29T04:03:48;4.28;;;2.95;;
70313;SDS011;57725;47.526;18.986;2023-05-29T04:06:14;4.35;;;3.20;;
70313;SDS011;57725;47.526;18.986;2023-05-29T04:08:41;5.15;;;3.05;;
70313;SDS011;57725;47.526;18.986;2023-05-29T04:11:07;4.57;;;3.05;;
70313;SDS011;57725;47.526;18.986;2023-05-29T04:13:37;3.88;;;2.83;;
70313;SDS011;57725;47.526;18.986;2023-05-29T04:16:05;4.30;;;3.10;;
70313;SDS011;57725;47.526;18.986;2023-05-29T04:18:34;4.60;;;3.30;;
70313;SDS011;57725;47.526;18.986;2023-05-29T04:21:00;5.35;;;3.38;;
70313;SDS011;57725;47.526;18.986;2023-05-29T04:23:28;3.67;;;2.88;;
70313;SDS011;57725;47.526;18.986;2023-05-29T04:25:53;4.85;;;3.40;;
70313;SDS011;57725;47.526;18.986;2023-05-29T04:28:21;4.53;;;3.70;;
70313;SDS011;57725;47.526;18.986;2023-05-29T04:30:47;5.10;;;3.50;;
70313;SDS011;57725;47.526;18.986;2023-05-29T04:33:12;4.35;;;2.80;;
70313;SDS011;57725;47.526;18.986;2023-05-29T04:35:42;5.25;;;3.03;;
70313;SDS011;57725;47.526;18.986;2023-05-29T04:38:08;5.35;;;2.97;;
70313;SDS011;57725;47.526;18.986;2023-05-29T04:40:36;4.93;;;3.70;;
70313;SDS011;57725;47.526;18.986;2023-05-29T04:43:09;4.05;;;3.63;;
70313;SDS011;57725;47.526;18.986;2023-05-29T04:45:34;4.63;;;3.22;;
70313;SDS011;57725;47.526;18.986;2023-05-29T04:48:02;4.50;;;3.75;;
70313;SDS011;57725;47.526;18.986;2023-05-29T04:50:30;6.43;;;3.85;;
70313;SDS011;57725;47.526;18.986;2023-05-29T04:52:56;4.50;;;3.60;;
70313;SDS011;57725;47.526;18.986;2023-05-29T04:55:22;4.07;;;3.20;;
70313;SDS011;57725;47.526;18.986;2023-05-29T04:57:50;4.65;;;3.35;;
70313;SDS011;57725;47.526;18.986;2023-05-29T05:00:18;4.63;;;3.63;;
70313;SDS011;57725;47.526;18.986;2023-05-29T05:02:49;3.85;;;3.45;;
70313;SDS011;57725;47.526;18.986;2023-05-29T05:05:17;4.22;;;3.63;;
70313;SDS011;57725;47.526;18.986;2023-05-29T05:07:43;3.63;;;3.22;;
70313;SDS011;57725;47.526;18.986;2023-05-29T05:10:08;5.13;;;3.85;;
70313;SDS011;57725;47.526;18.986;2023-05-29T05:12:36;5.22;;;3.92;;
70313;SDS011;57725;47.526;18.986;2023-05-29T05:15:04;4.20;;;3.72;;
70313;SDS011;57725;47.526;18.986;2023-05-29T05:17:30;4.22;;;3.45;;
70313;SDS011;57725;47.526;18.986;2023-05-29T05:19:56;4.95;;;4.10;;
70313;SDS011;57725;47.526;18.986;2023-05-29T05:22:23;5.22;;;3.67;;
70313;SDS011;57725;47.526;18.986;2023-05-29T05:24:49;4.15;;;3.10;;
70313;SDS011;57725;47.526;18.986;2023-05-29T05:27:18;4.63;;;3.47;;
70313;SDS011;57725;47.526;18.986;2023-05-29T05:29:43;3.88;;;3.38;;
70313;SDS011;57725;47.526;18.986;2023-05-29T05:32:08;4.28;;;3.42;;
70313;SDS011;57725;47.526;18.986;2023-05-29T05:34:34;5.50;;;3.60;;
70313;SDS011;57725;47.526;18.986;2023-05-29T05:37:02;4.38;;;3.10;;
70313;SDS011;57725;47.526;18.986;2023-05-29T05:39:33;4.32;;;3.47;;
70313;SDS011;57725;47.526;18.986;2023-05-29T05:42:01;4.22;;;3.53;;
70313;SDS011;57725;47.526;18.986;2023-05-29T05:44:28;4.38;;;3.47;;
70313;SDS011;57725;47.526;18.986;2023-05-29T05:46:54;4.40;;;3.42;;
70313;SDS011;57725;47.526;18.986;2023-05-29T05:49:19;4.68;;;3.35;;
70313;SDS011;57725;47.526;18.986;2023-05-29T05:51:47;3.65;;;2.90;;
70313;SDS011;57725;47.526;18.986;2023-05-29T05:54:12;5.60;;;3.35;;
70313;SDS011;57725;47.526;18.986;2023-05-29T05:56:38;4.35;;;3.67;;
70313;SDS011;57725;47.526;18.986;2023-05-29T05:59:06;7.78;;;3.35;;
70313;SDS011;57725;47.526;18.986;2023-05-29T06:01:36;4.45;;;3.55;;
70313;SDS011;57725;47.526;18.986;2023-05-29T06:04:04;4.50;;;3.55;;
70313;SDS011;57725;47.526;18.986;2023-05-29T06:06:32;4.28;;;3.35;;
70313;SDS011;57725;47.526;18.986;2023-05-29T06:08:59;3.67;;;3.20;;
70313;SDS011;57725;47.526;18.986;2023-05-29T06:11:25;4.72;;;3.17;;
70313;SDS011;57725;47.526;18.986;2023-05-29T06:13:51;3.88;;;3.35;;
70313;SDS011;57725;47.526;18.986;2023-05-29T06:16:18;4.55;;;3.50;;
70313;SDS011;57725;47.526;18.986;2023-05-29T06:18:44;4.30;;;3.15;;
70313;SDS011;57725;47.526;18.986;2023-05-29T06:21:12;4.70;;;3.80;;
70313;SDS011;57725;47.526;18.986;2023-05-29T06:23:38;4.63;;;3.78;;
70313;SDS011;57725;47.526;18.986;2023-05-29T06:26:04;5.60;;;3.83;;
70313;SDS011;57725;47.526;18.986;2023-05-29T06:28:31;3.85;;;3.13;;
70313;SDS011;57725;47.526;18.986;2023-05-29T06:30:57;4.07;;;3.38;;
70313;SDS011;57725;47.526;18.986;2023-05-29T06:33:24;4.85;;;3.78;;
70313;SDS011;57725;47.526;18.986;2023-05-29T06:35:52;4.68;;;3.60;;
70313;SDS011;57725;47.526;18.986;2023-05-29T06:38:21;3.85;;;3.45;;
70313;SDS011;57725;47.526;18.986;2023-05-29T06:40:51;5.00;;;3.65;;
70313;SDS011;57725;47.526;18.986;2023-05-29T06:43:16;4.10;;;3.30;;
70313;SDS011;57725;47.526;18.986;2023-05-29T06:45:44;6.38;;;3.78;;
70313;SDS011;57725;47.526;18.986;2023-05-29T06:48:09;4.20;;;3.55;;
70313;SDS011;57725;47.526;18.986;2023-05-29T06:50:35;4.80;;;3.50;;
70313;SDS011;57725;47.526;18.986;2023-05-29T06:53:00;7.68;;;3.65;;
70313;SDS011;57725;47.526;18.986;2023-05-29T06:55:28;3.78;;;3.38;;
70313;SDS011;57725;47.526;18.986;2023-05-29T06:57:53;5.63;;;3.78;;
70313;SDS011;57725;47.526;18.986;2023-05-29T07:00:19;4.90;;;3.33;;
70313;SDS011;57725;47.526;18.986;2023-05-29T07:02:44;4.70;;;3.65;;
70313;SDS011;57725;47.526;18.986;2023-05-29T07:05:13;3.78;;;3.30;;
70313;SDS011;57725;47.526;18.986;2023-05-29T07:07:41;3.83;;;3.13;;
70313;SDS011;57725;47.526;18.986;2023-05-29T07:10:06;4.13;;;3.50;;
70313;SDS011;57725;47.526;18.986;2023-05-29T07:12:31;3.70;;;3.30;;
70313;SDS011;57725;47.526;18.986;2023-05-29T07:14:57;5.30;;;3.55;;
70313;SDS011;57725;47.526;18.986;2023-05-29T07:17:22;3.92;;;3.42;;
70313;SDS011;57725;47.526;18.986;2023-05-29T07:19:48;4.18;;;3.20;;
70313;SDS011;57725;47.526;18.986;2023-05-29T07:22:14;3.97;;;3.35;;
70313;SDS011;57725;47.526;18.986;2023-05-29T07:24:40;4.72;;;3.80;;
70313;SDS011;57725;47.526;18.986;2023-05-29T07:27:06;3.88;;;3.40;;
70313;SDS011;57725;47.526;18.986;2023-05-29T07:29:31;3.40;;;3.10;;
70313;SDS011;57725;47.526;18.986;2023-05-29T07:31:59;5.03;;;3.13;;
70313;SDS011;57725;47.526;18.986;2023-05-29T07:34:27;4.72;;;3.55;;
70313;SDS011;57725;47.526;18.986;2023-05-29T07:37:10;4.78;;;3.50;;
70313;SDS011;57725;47.526;18.986;2023-05-29T07:39:38;4.80;;;3.58;;
70313;SDS011;57725;47.526;18.986;2023-05-29T07:42:04;4.88;;;3.85;;
70313;SDS011;57725;47.526;18.986;2023-05-29T07:44:31;5.30;;;3.55;;
70313;SDS011;57725;47.526;18.986;2023-05-29T07:46:57;4.88;;;3.45;;
70313;SDS011;57725;47.526;18.986;2023-05-29T07:49:25;4.20;;;3.30;;
70313;SDS011;57725;47.526;18.986;2023-05-29T07:51:50;5.35;;;3.92;;
70313;SDS011;57725;47.526;18.986;2023-05-29T07:54:16;3.88;;;3.15;;
70313;SDS011;57725;47.526;18.986;2023-05-29T07:56:43;4.05;;;3.20;;
70313;SDS011;57725;47.526;18.986;2023-05-29T07:59:15;5.88;;;3.90;;
70313;SDS011;57725;47.526;18.986;2023-05-29T08:01:41;3.97;;;2.78;;
70313;SDS011;57725;47.526;18.986;2023-05-29T08:04:09;4.30;;;3.33;;
70313;SDS011;57725;47.526;18.986;2023-05-29T08:06:40;6.70;;;3.90;;
70313;SDS011;57725;47.526;18.986;2023-05-29T08:09:09;4.72;;;3.78;;
70313;SDS011;57725;47.526;18.986;2023-05-29T08:11:38;5.30;;;3.47;;
70313;SDS011;57725;47.526;18.986;2023-05-29T08:14:03;4.15;;;3.30;;
70313;SDS011;57725;47.526;18.986;2023-05-29T08:16:29;3.55;;;3.15;;
70313;SDS011;57725;47.526;18.986;2023-05-29T08:18:57;4.05;;;3.17;;
70313;SDS011;57725;47.526;18.986;2023-05-29T08:21:22;3.70;;;3.20;;
70313;SDS011;57725;47.526;18.986;2023-05-29T08:23:48;3.83;;;3.30;;
70313;SDS011;57725;47.526;18.986;2023-05-29T08:26:19;5.57;;;3.58;;
70313;SDS011;57725;47.526;18.986;2023-05-29T08:28:45;5.60;;;3.90;;
70313;SDS011;57725;47.526;18.986;2023-05-29T08:31:11;4.65;;;3.55;;
70313;SDS011;57725;47.526;18.986;2023-05-29T08:33:37;4.47;;;3.42;;
70313;SDS011;57725;47.526;18.986;2023-05-29T08:36:02;4.43;;;3.17;;
70313;SDS011;57725;47.526;18.986;2023-05-29T08:38:28;5.20;;;3.92;;
70313;SDS011;57725;47.526;18.986;2023-05-29T08:41:01;4.55;;;3.30;;
70313;SDS011;57725;47.526;18.986;2023-05-29T08:43:30;4.70;;;3.65;;
70313;SDS011;57725;47.526;18.986;2023-05-29T08:45:59;5.30;;;3.42;;
70313;SDS011;57725;47.526;18.986;2023-05-29T08:48:27;5.70;;;3.78;;
70313;SDS011;57725;47.526;18.986;2023-05-29T08:51:01;4.32;;;3.70;;
70313;SDS011;57725;47.526;18.986;2023-05-29T08:53:30;4.38;;;3.47;;
70313;SDS011;57725;47.526;18.986;2023-05-29T08:55:57;4.45;;;3.70;;
70313;SDS011;57725;47.526;18.986;2023-05-29T08:58:23;3.65;;;3.13;;
70313;SDS011;57725;47.526;18.986;2023-05-29T09:00:49;5.60;;;3.83;;
70313;SDS011;57725;47.526;18.986;2023-05-29T09:03:16;5.20;;;3.47;;
70313;SDS011;57725;47.526;18.986;2023-05-29T09:05:47;4.15;;;3.72;;
70313;SDS011;57725;47.526;18.986;2023-05-29T09:08:16;5.70;;;3.95;;
70313;SDS011;57725;47.526;18.986;2023-05-29T09:10:42;6.28;;;3.47;;
70313;SDS011;57725;47.526;18.986;2023-05-29T09:13:11;6.38;;;4.13;;
70313;SDS011;57725;47.526;18.986;2023-05-29T09:15:36;5.15;;;3.97;;
70313;SDS011;57725;47.526;18.986;2023-05-29T09:18:05;6.65;;;3.63;;
70313;SDS011;57725;47.526;18.986;2023-05-29T09:20:30;5.30;;;3.67;;
70313;SDS011;57725;47.526;18.986;2023-05-29T09:22:56;5.35;;;3.90;;
70313;SDS011;57725;47.526;18.986;2023-05-29T09:25:23;4.82;;;3.47;;
70313;SDS011;57725;47.526;18.986;2023-05-29T09:33:05;5.30;;;3.92;;
70313;SDS011;57725;47.526;18.986;2023-05-29T09:38:04;4.53;;;3.80;;
70313;SDS011;57725;47.526;18.986;2023-05-29T09:40:34;4.40;;;3.65;;
70313;SDS011;57725;47.526;18.986;2023-05-29T09:43:04;4.30;;;3.60;;
70313;SDS011;57725;47.526;18.986;2023-05-29T09:45:33;4.38;;;3.70;;
70313;SDS011;57725;47.526;18.986;2023-05-29T09:48:04;5.80;;;4.30;;
70313;SDS011;57725;47.526;18.986;2023-05-29T09:50:34;3.72;;;3.30;;
70313;SDS011;57725;47.526;18.986;2023-05-29T09:53:02;5.05;;;3.72;;
70313;SDS011;57725;47.526;18.986;2023-05-29T09:55:28;4.90;;;3.55;;
70313;SDS011;57725;47.526;18.986;2023-05-29T09:58:01;4.15;;;3.72;;
70313;SDS011;57725;47.526;18.986;2023-05-29T10:00:27;5.00;;;3.55;;
70313;SDS011;57725;47.526;18.986;2023-05-29T10:02:57;4.88;;;3.92;;
70313;SDS011;57725;47.526;18.986;2023-05-29T10:05:23;4.28;;;3.58;;
70313;SDS011;57725;47.526;18.986;2023-05-29T10:07:51;5.70;;;4.22;;
70313;SDS011;57725;47.526;18.986;2023-05-29T10:10:19;5.22;;;3.45;;
70313;SDS011;57725;47.526;18.986;2023-05-29T10:12:49;4.03;;;3.35;;
70313;SDS011;57725;47.526;18.986;2023-05-29T10:15:18;4.28;;;3.30;;
70313;SDS011;57725;47.526;18.986;2023-05-29T10:18:03;5.55;;;3.70;;
70313;SDS011;57725;47.526;18.986;2023-05-29T10:20:44;4.22;;;3.72;;
70313;SDS011;57725;47.526;18.986;2023-05-29T10:23:16;4.47;;;3.83;;
70313;SDS011;57725;47.526;18.986;2023-05-29T10:25:48;5.82;;;3.95;;
70313;SDS011;57725;47.526;18.986;2023-05-29T10:28:20;4.88;;;3.65;;
70313;SDS011;57725;47.526;18.986;2023-05-29T10:30:49;4.03;;;3.30;;
70313;SDS011;57725;47.526;18.986;2023-05-29T10:36:35;6.43;;;4.18;;
70313;SDS011;57725;47.526;18.986;2023-05-29T10:39:07;6.40;;;4.18;;
70313;SDS011;57725;47.526;18.986;2023-05-29T10:41:35;4.95;;;3.92;;
70313;SDS011;57725;47.526;18.986;2023-05-29T10:49:24;3.80;;;3.40;;
70313;SDS011;57725;47.526;18.986;2023-05-29T10:51:52;3.90;;;3.17;;
70313;SDS011;57725;47.526;18.986;2023-05-29T10:54:24;5.38;;;4.10;;
70313;SDS011;57725;47.526;18.986;2023-05-29T10:57:02;5.40;;;3.97;;
70313;SDS011;57725;47.526;18.986;2023-05-29T11:02:03;4.00;;;3.45;;
70313;SDS011;57725;47.526;18.986;2023-05-29T11:04:30;7.07;;;4.13;;
70313;SDS011;57725;47.526;18.986;2023-05-29T11:07:01;4.60;;;4.05;;
70313;SDS011;57725;47.526;18.986;2023-05-29T11:09:37;4.80;;;3.83;;
70313;SDS011;57725;47.526;18.986;2023-05-29T11:12:13;6.15;;;4.45;;
70313;SDS011;57725;47.526;18.986;2023-05-29T11:15:04;4.20;;;3.75;;
70313;SDS011;57725;47.526;18.986;2023-05-29T11:17:31;6.03;;;4.03;;
70313;SDS011;57725;47.526;18.986;2023-05-29T11:20:49;5.38;;;3.80;;
70313;SDS011;57725;47.526;18.986;2023-05-29T11:23:02;5.82;;;3.70;;
70313;SDS011;57725;47.526;18.986;2023-05-29T11:25:34;4.85;;;3.70;;
70313;SDS011;57725;47.526;18.986;2023-05-29T11:28:03;4.38;;;3.58;;
70313;SDS011;57725;47.526;18.986;2023-05-29T11:30:41;4.72;;;3.75;;
70313;SDS011;57725;47.526;18.986;2023-05-29T11:33:07;5.03;;;3.78;;
70313;SDS011;57725;47.526;18.986;2023-05-29T11:35:39;4.95;;;4.10;;
70313;SDS011;57725;47.526;18.986;2023-05-29T11:38:04;4.10;;;3.70;;
70313;SDS011;57725;47.526;18.986;2023-05-29T11:40:35;7.03;;;3.78;;
70313;SDS011;57725;47.526;18.986;2023-05-29T11:43:01;5.80;;;4.05;;
70313;SDS011;57725;47.526;18.986;2023-05-29T11:45:31;4.30;;;3.90;;
70313;SDS011;57725;47.526;18.986;2023-05-29T11:47:59;5.47;;;3.92;;
70313;SDS011;57725;47.526;18.986;2023-05-29T11:50:26;4.80;;;3.63;;
70313;SDS011;57725;47.526;18.986;2023-05-29T11:52:53;4.57;;;3.78;;
70313;SDS011;57725;47.526;18.986;2023-05-29T11:55:22;5.03;;;3.97;;
70313;SDS011;57725;47.526;18.986;2023-05-29T11:57:56;3.78;;;3.22;;
70313;SDS011;57725;47.526;18.986;2023-05-29T12:00:23;6.17;;;4.33;;
70313;SDS011;57725;47.526;18.986;2023-05-29T12:02:49;6.07;;;4.57;;
70313;SDS011;57725;47.526;18.986;2023-05-29T12:05:16;7.22;;;4.53;;
70313;SDS011;57725;47.526;18.986;2023-05-29T12:07:55;4.38;;;3.85;;
70313;SDS011;57725;47.526;18.986;2023-05-29T12:10:27;4.90;;;4.40;;
70313;SDS011;57725;47.526;18.986;2023-05-29T12:12:56;4.85;;;3.88;;
70313;SDS011;57725;47.526;18.986;2023-05-29T12:15:25;4.53;;;3.83;;
70313;SDS011;57725;47.526;18.986;2023-05-29T12:17:51;3.80;;;3.35;;
70313;SDS011;57725;47.526;18.986;2023-05-29T12:20:23;5.32;;;4.22;;
70313;SDS011;57725;47.526;18.986;2023-05-29T12:22:58;5.72;;;4.43;;
70313;SDS011;57725;47.526;18.986;2023-05-29T12:25:28;5.03;;;3.67;;
70313;SDS011;57725;47.526;18.986;2023-05-29T12:27:57;5.10;;;4.18;;
70313;SDS011;57725;47.526;18.986;2023-05-29T12:30:24;5.50;;;4.05;;
70313;SDS011;57725;47.526;18.986;2023-05-29T12:32:55;4.45;;;3.95;;
70313;SDS011;57725;47.526;18.986;2023-05-29T12:40:22;5.07;;;3.55;;
70313;SDS011;57725;47.526;18.986;2023-05-29T12:42:52;5.35;;;4.38;;
70313;SDS011;57725;47.526;18.986;2023-05-29T12:45:32;4.88;;;3.63;;
70313;SDS011;57725;47.526;18.986;2023-05-29T12:47:59;5.43;;;4.30;;
70313;SDS011;57725;47.526;18.986;2023-05-29T12:50:30;4.85;;;3.92;;
70313;SDS011;57725;47.526;18.986;2023-05-29T12:52:57;5.22;;;3.83;;
70313;SDS011;57725;47.526;18.986;2023-05-29T12:55:30;5.28;;;4.47;;
70313;SDS011;57725;47.526;18.986;2023-05-29T12:58:06;4.30;;;3.90;;
70313;SDS011;57725;47.526;18.986;2023-05-29T13:00:40;5.53;;;4.60;;
70313;SDS011;57725;47.526;18.986;2023-05-29T13:03:06;5.97;;;4.00;;
70313;SDS011;57725;47.526;18.986;2023-05-29T13:05:36;5.55;;;4.18;;
70313;SDS011;57725;47.526;18.986;2023-05-29T13:08:04;5.60;;;4.47;;
70313;SDS011;57725;47.526;18.986;2023-05-29T13:10:32;5.05;;;4.30;;
70313;SDS011;57725;47.526;18.986;2023-05-29T13:12:57;4.90;;;4.28;;
70313;SDS011;57725;47.526;18.986;2023-05-29T13:15:24;4.22;;;3.70;;
70313;SDS011;57725;47.526;18.986;2023-05-29T13:17:51;5.03;;;4.47;;
70313;SDS011;57725;47.526;18.986;2023-05-29T13:20:18;4.70;;;3.80;;
70313;SDS011;57725;47.526;18.986;2023-05-29T13:22:47;4.85;;;4.22;;
70313;SDS011;57725;47.526;18.986;2023-05-29T13:25:13;6.80;;;4.53;;
70313;SDS011;57725;47.526;18.986;2023-05-29T13:27:42;5.05;;;4.18;;
70313;SDS011;57725;47.526;18.986;2023-05-29T13:30:10;6.35;;;4.65;;
70313;SDS011;57725;47.526;18.986;2023-05-29T13:32:39;9.25;;;4.05;;
70313;SDS011;57725;47.526;18.986;2023-05-29T13:35:07;5.25;;;4.35;;
70313;SDS011;57725;47.526;18.986;2023-05-29T13:37:38;4.97;;;4.05;;
70313;SDS011;57725;47.526;18.986;2023-05-29T13:40:09;4.70;;;4.13;;
70313;SDS011;57725;47.526;18.986;2023-05-29T13:42:35;5.15;;;4.60;;
70313;SDS011;57725;47.526;18.986;2023-05-29T13:45:05;5.20;;;4.38;;
70313;SDS011;57725;47.526;18.986;2023-05-29T13:47:32;5.03;;;4.53;;
70313;SDS011;57725;47.526;18.986;2023-05-29T13:49:58;6.10;;;4.40;;
70313;SDS011;57725;47.526;18.986;2023-05-29T13:52:26;5.28;;;4.38;;
70313;SDS011;57725;47.526;18.986;2023-05-29T13:54:52;6.57;;;4.65;;
70313;SDS011;57725;47.526;18.986;2023-05-29T13:57:17;4.60;;;4.10;;
70313;SDS011;57725;47.526;18.986;2023-05-29T13:59:45;5.63;;;4.45;;
70313;SDS011;57725;47.526;18.986;2023-05-29T14:02:16;5.22;;;4.72;;
70313;SDS011;57725;47.526;18.986;2023-05-29T14:04:41;4.88;;;4.28;;
70313;SDS011;57725;47.526;18.986;2023-05-29T14:07:12;5.60;;;4.65;;
70313;SDS011;57725;47.526;18.986;2023-05-29T14:09:40;6.15;;;4.90;;
70313;SDS011;57725;47.526;18.986;2023-05-29T14:12:09;4.85;;;4.28;;
70313;SDS011;57725;47.526;18.986;2023-05-29T14:14:37;5.68;;;4.30;;
70313;SDS011;57725;47.526;18.986;2023-05-29T14:17:04;8.13;;;4.53;;
70313;SDS011;57725;47.526;18.986;2023-05-29T14:19:30;5.53;;;4.80;;
70313;SDS011;57725;47.526;18.986;2023-05-29T14:22:03;6.65;;;4.68;;
70313;SDS011;57725;47.526;18.986;2023-05-29T14:24:29;5.60;;;4.90;;
70313;SDS011;57725;47.526;18.986;2023-05-29T14:26:55;7.97;;;5.07;;
70313;SDS011;57725;47.526;18.986;2023-05-29T14:29:20;7.15;;;5.22;;
70313;SDS011;57725;47.526;18.986;2023-05-29T14:32:01;5.20;;;4.57;;
70313;SDS011;57725;47.526;18.986;2023-05-29T14:34:27;6.00;;;4.47;;
70313;SDS011;57725;47.526;18.986;2023-05-29T14:36:54;5.80;;;4.72;;
70313;SDS011;57725;47.526;18.986;2023-05-29T14:39:20;6.05;;;5.03;;
70313;SDS011;57725;47.526;18.986;2023-05-29T14:41:48;6.10;;;4.80;;
70313;SDS011;57725;47.526;18.986;2023-05-29T14:44:13;5.10;;;4.60;;
70313;SDS011;57725;47.526;18.986;2023-05-29T14:46:39;5.32;;;4.53;;
70313;SDS011;57725;47.526;18.986;2023-05-29T14:49:05;5.45;;;4.32;;
70313;SDS011;57725;47.526;18.986;2023-05-29T14:51:33;5.25;;;4.60;;
70313;SDS011;57725;47.526;18.986;2023-05-29T14:53:58;5.18;;;4.35;;
70313;SDS011;57725;47.526;18.986;2023-05-29T14:56:26;5.63;;;4.80;;
70313;SDS011;57725;47.526;18.986;2023-05-29T14:58:56;5.60;;;5.03;;
70313;SDS011;57725;47.526;18.986;2023-05-29T15:01:24;7.20;;;4.82;;
70313;SDS011;57725;47.526;18.986;2023-05-29T15:03:50;5.78;;;4.60;;
70313;SDS011;57725;47.526;18.986;2023-05-29T15:06:18;5.43;;;4.78;;
70313;SDS011;57725;47.526;18.986;2023-05-29T15:08:43;6.60;;;4.60;;
70313;SDS011;57725;47.526;18.986;2023-05-29T15:11:14;4.85;;;4.20;;